createdAt,value
2019-06-15T00:00:51.057Z,22.40
2019-06-15T00:03:22.854Z,22.40
2019-06-15T00:05:53.563Z,22.40
2019-06-15T00:08:24.414Z,22.40
2019-06-15T00:10:55.253Z,22.40
2019-06-15T00:13:27.187Z,22.30
2019-06-15T00:15:59.344Z,22.20
2019-06-15T00:18:30.681Z,22.10
2019-06-15T00:21:01.871Z,22.20
2019-06-15T00:23:32.672Z,22.10
2019-06-15T00:26:03.473Z,22.10
2019-06-15T00:28:34.224Z,22.10
2019-06-15T00:31:04.993Z,22.00
2019-06-15T00:33:35.769Z,22.00
2019-06-15T00:36:06.965Z,22.00
2019-06-15T00:38:37.726Z,21.90
2019-06-15T00:41:08.523Z,21.80
2019-06-15T00:43:40.587Z,21.90
2019-06-15T00:46:11.423Z,21.90
2019-06-15T00:48:42.216Z,21.80
2019-06-15T00:51:12.975Z,21.80
2019-06-15T00:53:43.762Z,21.80
2019-06-15T00:56:14.505Z,21.80
2019-06-15T00:58:45.807Z,21.70
2019-06-15T01:01:16.592Z,21.70
2019-06-15T01:03:47.588Z,21.80
2019-06-15T01:06:18.360Z,21.80
2019-06-15T01:08:49.409Z,21.90
2019-06-15T01:11:20.789Z,21.90
2019-06-15T01:13:51.928Z,21.80
2019-06-15T01:16:23.480Z,21.80
2019-06-15T01:18:54.226Z,21.80
2019-06-15T01:21:25.265Z,21.70
2019-06-15T01:23:56.017Z,21.70
2019-06-15T01:26:27.030Z,21.70
2019-06-15T01:28:58.073Z,21.60
2019-06-15T01:31:28.840Z,21.70
2019-06-15T01:33:59.633Z,21.60
2019-06-15T01:36:30.669Z,21.70
2019-06-15T01:39:01.708Z,21.60
2019-06-15T01:41:34.096Z,21.60
2019-06-15T01:44:05.089Z,21.50
2019-06-15T01:46:35.863Z,21.50
2019-06-15T01:49:07.011Z,21.40
2019-06-15T01:51:37.853Z,21.30
2019-06-15T01:54:09.265Z,21.30
2019-06-15T01:56:40.016Z,21.30
2019-06-15T01:59:10.916Z,21.20
2019-06-15T02:01:42.753Z,21.10
2019-06-15T02:04:13.786Z,21.20
2019-06-15T02:06:44.828Z,21.20
2019-06-15T02:09:15.645Z,21.20
2019-06-15T02:11:46.473Z,21.20
2019-06-15T02:14:17.484Z,21.20
2019-06-15T02:16:48.518Z,21.20
2019-06-15T02:19:19.308Z,21.10
2019-06-15T02:21:50.151Z,21.10
2019-06-15T02:24:21.238Z,21.00
2019-06-15T02:26:52.295Z,21.10
2019-06-15T02:29:23.159Z,21.20
2019-06-15T02:31:53.924Z,21.20
2019-06-15T02:34:25.026Z,21.20
2019-06-15T02:36:56.878Z,21.10
2019-06-15T02:39:28.955Z,21.10
2019-06-15T02:41:59.789Z,21.10
2019-06-15T02:44:30.537Z,21.10
2019-06-15T02:47:01.381Z,21.10
2019-06-15T02:49:32.143Z,21.10
2019-06-15T02:52:03.239Z,21.00
2019-06-15T02:54:34.084Z,21.00
2019-06-15T02:57:04.984Z,21.10
2019-06-15T02:59:35.841Z,21.10
2019-06-15T03:02:07.583Z,21.10
2019-06-15T03:04:38.641Z,21.20
2019-06-15T03:07:09.738Z,21.20
2019-06-15T03:09:40.485Z,21.20
2019-06-15T03:12:11.245Z,21.20
2019-06-15T03:14:42.594Z,21.20
2019-06-15T03:17:13.958Z,21.00
2019-06-15T03:19:44.713Z,20.90
2019-06-15T03:22:15.468Z,20.80
2019-06-15T03:24:46.212Z,20.80
2019-06-15T03:27:17.048Z,20.80
2019-06-15T03:29:48.158Z,20.90
2019-06-15T03:32:19.380Z,21.00
2019-06-15T03:34:50.150Z,21.10
2019-06-15T03:37:20.967Z,21.20
2019-06-15T03:39:52.006Z,21.30
2019-06-15T03:42:23.128Z,21.40
2019-06-15T03:44:53.881Z,21.50
2019-06-15T03:47:24.646Z,21.50
2019-06-15T03:49:55.714Z,21.60
2019-06-15T03:52:26.781Z,21.70
2019-06-15T03:54:57.576Z,21.80
2019-06-15T03:57:28.351Z,21.90
2019-06-15T03:59:59.386Z,22.00
2019-06-15T04:02:30.497Z,22.30
2019-06-15T04:05:02.313Z,22.40
2019-06-15T04:07:33.892Z,22.50
2019-06-15T04:10:05.085Z,22.60
2019-06-15T04:12:35.860Z,22.60
2019-06-15T04:15:07.302Z,22.70
2019-06-15T04:17:38.415Z,22.70
2019-06-15T04:20:09.487Z,22.70
2019-06-15T04:22:40.283Z,22.70
2019-06-15T04:25:11.447Z,22.80
2019-06-15T04:27:42.630Z,22.80
2019-06-15T04:30:14.126Z,22.90
2019-06-15T04:32:45.148Z,22.90
2019-06-15T04:35:16.734Z,22.90
2019-06-15T04:37:47.514Z,23.00
2019-06-15T04:40:18.423Z,23.00
2019-06-15T04:42:49.892Z,23.00
2019-06-15T04:45:21.011Z,23.10
2019-06-15T04:47:52.444Z,23.10
2019-06-15T04:50:23.204Z,23.10
2019-06-15T04:52:54.615Z,23.10
2019-06-15T04:55:25.442Z,23.10
2019-06-15T04:57:56.465Z,23.10
2019-06-15T05:00:27.340Z,23.20
2019-06-15T05:02:58.442Z,23.20
2019-06-15T05:05:29.185Z,23.30
2019-06-15T05:08:00.132Z,23.30
2019-06-15T05:10:30.923Z,23.30
2019-06-15T05:13:02.004Z,23.30
2019-06-15T05:15:32.787Z,23.40
2019-06-15T05:18:03.580Z,23.40
2019-06-15T05:20:34.671Z,23.30
2019-06-15T05:23:05.514Z,23.30
2019-06-15T05:25:36.837Z,23.30
2019-06-15T05:28:07.897Z,23.30
2019-06-15T05:30:38.678Z,23.40
2019-06-15T05:33:09.777Z,23.30
2019-06-15T05:35:40.537Z,23.30
2019-06-15T05:38:11.758Z,23.30
2019-06-15T05:40:43.474Z,23.40
2019-06-15T05:43:14.738Z,23.40
2019-06-15T05:45:45.499Z,23.40
2019-06-15T05:48:16.342Z,23.50
2019-06-15T05:50:47.170Z,23.60
2019-06-15T05:53:18.579Z,23.70
2019-06-15T05:55:49.724Z,23.70
2019-06-15T05:58:20.498Z,23.70
2019-06-15T06:00:51.339Z,23.80
2019-06-15T06:03:22.521Z,23.90
2019-06-15T06:05:53.585Z,24.00
2019-06-15T06:08:25.797Z,24.00
2019-06-15T06:10:56.570Z,24.10
2019-06-15T06:13:27.835Z,24.20
2019-06-15T06:15:58.614Z,24.20
2019-06-15T06:18:29.374Z,24.40
2019-06-15T06:21:00.548Z,24.50
2019-06-15T06:23:31.375Z,24.60
2019-06-15T06:26:02.346Z,24.70
2019-06-15T06:28:33.115Z,24.80
2019-06-15T06:31:04.517Z,24.90
2019-06-15T06:33:35.422Z,25.00
2019-06-15T06:36:06.672Z,25.00
2019-06-15T06:38:37.791Z,25.10
2019-06-15T06:41:08.608Z,25.10
2019-06-15T06:43:39.377Z,25.10
2019-06-15T06:46:10.116Z,25.20
2019-06-15T06:48:41.260Z,25.30
2019-06-15T06:51:12.054Z,25.40
2019-06-15T06:53:43.402Z,25.50
2019-06-15T06:56:14.544Z,25.60
2019-06-15T06:58:45.322Z,25.80
2019-06-15T07:01:16.168Z,25.90
2019-06-15T07:03:46.973Z,26.10
2019-06-15T07:06:17.744Z,26.20
2019-06-15T07:08:48.785Z,26.30
2019-06-15T07:11:19.576Z,26.40
2019-06-15T07:13:50.636Z,26.40
2019-06-15T07:16:21.440Z,26.40
2019-06-15T07:18:52.206Z,26.40
2019-06-15T07:21:23.034Z,26.30
2019-06-15T07:23:54.085Z,26.30
2019-06-15T07:26:24.914Z,26.40
2019-06-15T07:28:55.699Z,26.40
2019-06-15T07:31:26.836Z,26.60
2019-06-15T07:33:57.608Z,26.70
2019-06-15T07:36:28.989Z,26.90
2019-06-15T07:38:59.786Z,27.10
2019-06-15T07:41:30.524Z,27.20
2019-06-15T07:44:01.423Z,27.20
2019-06-15T07:46:32.433Z,27.20
2019-06-15T07:49:05.066Z,27.00
2019-06-15T07:51:35.925Z,26.90
2019-06-15T07:54:06.794Z,26.90
2019-06-15T07:56:37.539Z,26.90
2019-06-15T07:59:08.306Z,26.90
2019-06-15T08:01:39.117Z,27.00
2019-06-15T08:04:09.901Z,27.20
2019-06-15T08:06:40.933Z,27.20
2019-06-15T08:09:12.217Z,27.30
2019-06-15T08:11:45.821Z,27.40
2019-06-15T08:14:15.946Z,27.60
2019-06-15T08:16:47.064Z,27.80
2019-06-15T08:19:18.194Z,27.90
2019-06-15T08:21:48.936Z,27.90
2019-06-15T08:24:19.734Z,27.90
2019-06-15T08:26:51.438Z,28.20
2019-06-15T08:29:22.452Z,28.30
2019-06-15T08:31:53.257Z,28.30
2019-06-15T08:34:24.033Z,28.20
2019-06-15T08:36:55.098Z,28.30
2019-06-15T08:39:26.295Z,28.20
2019-06-15T08:41:57.158Z,28.20
2019-06-15T08:44:27.922Z,28.40
2019-06-15T08:46:59.559Z,28.40
2019-06-15T08:49:30.876Z,28.50
2019-06-15T08:52:04.315Z,28.40
2019-06-15T08:54:34.985Z,28.50
2019-06-15T08:57:05.835Z,28.60
2019-06-15T08:59:36.602Z,28.80
2019-06-15T09:02:07.701Z,28.90
2019-06-15T09:04:40.039Z,29.00
2019-06-15T09:07:11.153Z,29.00
2019-06-15T09:09:41.925Z,29.30
2019-06-15T09:12:12.907Z,29.40
2019-06-15T09:14:43.725Z,29.50
2019-06-15T09:17:14.836Z,29.60
2019-06-15T09:19:45.947Z,29.70
2019-06-15T09:22:16.797Z,29.60
2019-06-15T09:24:48.537Z,29.50
2019-06-15T09:27:19.302Z,29.40
2019-06-15T09:29:50.420Z,29.10
2019-06-15T09:32:21.451Z,29.20
2019-06-15T09:34:53.546Z,29.30
2019-06-15T09:37:24.326Z,29.10
2019-06-15T09:39:55.360Z,29.10
2019-06-15T09:42:26.429Z,29.00
2019-06-15T09:44:57.214Z,29.20
2019-06-15T09:47:28.320Z,29.30
2019-06-15T09:49:59.473Z,29.30
2019-06-15T09:52:30.561Z,29.10
2019-06-15T09:55:01.636Z,29.20
2019-06-15T09:57:32.411Z,29.30
2019-06-15T10:00:03.429Z,29.50
2019-06-15T10:02:34.391Z,29.60
2019-06-15T10:05:06.160Z,29.50
2019-06-15T10:07:37.045Z,29.50
2019-06-15T10:10:09.501Z,29.40
2019-06-15T10:12:40.570Z,29.30
2019-06-15T10:15:12.154Z,29.20
2019-06-15T10:17:42.914Z,29.50
2019-06-15T10:20:15.907Z,29.60
2019-06-15T10:22:46.980Z,29.80
2019-06-15T10:25:18.426Z,29.50
2019-06-15T10:27:49.570Z,29.30
2019-06-15T10:30:20.954Z,29.40
2019-06-15T10:32:52.165Z,29.30
2019-06-15T10:35:22.939Z,29.10
2019-06-15T10:37:53.787Z,29.00
2019-06-15T10:40:24.786Z,28.80
2019-06-15T10:42:56.200Z,29.00
2019-06-15T10:45:27.401Z,29.20
2019-06-15T10:47:58.422Z,29.20
2019-06-15T10:50:29.184Z,29.20
2019-06-15T10:52:59.974Z,29.30
2019-06-15T10:55:30.839Z,29.40
2019-06-15T10:58:01.585Z,29.40
2019-06-15T11:00:32.413Z,29.50
2019-06-15T11:03:03.507Z,29.60
2019-06-15T11:05:34.963Z,29.40
2019-06-15T11:08:05.766Z,28.70
2019-06-15T11:10:50.726Z,28.40
2019-06-15T11:13:21.467Z,28.20
2019-06-15T11:15:52.617Z,28.10
2019-06-15T11:18:24.044Z,27.90
2019-06-15T11:20:54.860Z,27.50
2019-06-15T11:23:25.986Z,27.40
2019-06-15T11:25:57.121Z,27.30
2019-06-15T11:28:28.429Z,27.10
2019-06-15T11:30:59.442Z,27.10
2019-06-15T11:33:30.559Z,27.00
2019-06-15T11:36:01.543Z,27.50
2019-06-15T11:38:32.380Z,27.80
2019-06-15T11:41:03.801Z,28.30
2019-06-15T11:43:35.278Z,28.60
2019-06-15T11:46:07.360Z,28.60
2019-06-15T11:48:38.118Z,28.70
2019-06-15T11:51:08.980Z,28.60
2019-06-15T11:53:40.070Z,28.40
2019-06-15T11:56:11.161Z,28.40
2019-06-15T11:58:42.156Z,28.60
2019-06-15T12:01:13.246Z,28.70
2019-06-15T12:03:43.995Z,28.50
2019-06-15T12:06:15.415Z,28.50
2019-06-15T12:08:46.216Z,28.50
2019-06-15T12:11:17.565Z,28.60
2019-06-15T12:13:48.308Z,28.20
2019-06-15T12:16:20.497Z,28.20
2019-06-15T12:18:51.500Z,28.10
2019-06-15T12:21:22.292Z,28.10
2019-06-15T12:23:53.107Z,27.80
2019-06-15T12:26:24.155Z,27.60
2019-06-15T12:28:55.051Z,27.50
2019-06-15T12:31:25.925Z,27.70
2019-06-15T12:33:56.969Z,27.80
2019-06-15T12:36:27.751Z,27.80
2019-06-15T12:38:58.535Z,27.90
2019-06-15T12:41:30.000Z,27.90
2019-06-15T12:44:01.177Z,27.90
2019-06-15T12:46:32.298Z,28.20
2019-06-15T12:49:03.049Z,28.00
2019-06-15T12:51:33.945Z,27.80
2019-06-15T12:54:04.786Z,27.80
2019-06-15T12:56:35.567Z,27.70
2019-06-15T12:59:06.394Z,27.80
2019-06-15T13:01:37.248Z,27.70
2019-06-15T13:04:07.997Z,27.50
2019-06-15T13:06:38.775Z,27.50
2019-06-15T13:09:09.768Z,27.80
2019-06-15T13:11:41.198Z,27.80
2019-06-15T13:14:11.957Z,27.80
2019-06-15T13:16:43.337Z,27.60
2019-06-15T13:19:14.885Z,27.50
2019-06-15T13:21:45.937Z,27.80
2019-06-15T13:24:17.425Z,27.80
2019-06-15T13:26:48.223Z,27.90
2019-06-15T13:29:19.002Z,27.80
2019-06-15T13:31:50.044Z,27.80
2019-06-15T13:34:22.295Z,27.70
2019-06-15T13:36:53.424Z,27.80
2019-06-15T13:39:24.449Z,27.80
2019-06-15T13:41:55.233Z,28.00
2019-06-15T13:44:26.360Z,28.10
2019-06-15T13:46:57.141Z,28.20
2019-06-15T13:49:28.156Z,27.90
2019-06-15T13:51:58.911Z,27.60
2019-06-15T13:54:30.429Z,27.30
2019-06-15T13:57:01.207Z,27.40
2019-06-15T13:59:31.954Z,27.40
2019-06-15T14:02:03.045Z,27.20
2019-06-15T14:04:33.861Z,27.20
2019-06-15T14:07:04.714Z,27.40
2019-06-15T14:09:36.208Z,27.30
2019-06-15T14:12:07.268Z,27.40
2019-06-15T14:14:38.335Z,27.50
2019-06-15T14:17:09.108Z,27.30
2019-06-15T14:19:39.888Z,27.30
2019-06-15T14:22:10.664Z,27.30
2019-06-15T14:24:41.443Z,27.30
2019-06-15T14:27:12.261Z,27.50
2019-06-15T14:29:43.021Z,27.30
2019-06-15T14:32:13.796Z,27.40
2019-06-15T14:34:45.827Z,27.40
2019-06-15T14:37:16.955Z,27.50
2019-06-15T14:39:48.026Z,27.30
2019-06-15T14:42:18.941Z,27.10
2019-06-15T14:44:52.541Z,27.00
2019-06-15T14:47:23.391Z,27.00
2019-06-15T14:49:54.427Z,27.00
2019-06-15T14:52:25.206Z,27.00
2019-06-15T14:54:56.745Z,26.90
2019-06-15T14:57:27.525Z,26.70
2019-06-15T15:00:04.732Z,26.30
2019-06-15T15:02:31.053Z,26.20
2019-06-15T15:05:02.184Z,26.20
2019-06-15T15:07:33.342Z,26.20
2019-06-15T15:10:07.210Z,26.40
2019-06-15T15:12:41.497Z,26.50
2019-06-15T15:15:12.043Z,26.40
2019-06-15T15:17:42.891Z,26.30
2019-06-15T15:20:13.851Z,26.20
2019-06-15T15:22:46.526Z,26.20
2019-06-15T15:25:18.630Z,26.10
2019-06-15T15:27:49.408Z,26.20
2019-06-15T15:30:43.318Z,26.10
2019-06-15T15:33:14.483Z,26.30
2019-06-15T15:35:46.670Z,26.10
2019-06-15T15:38:17.919Z,26.00
2019-06-15T15:40:49.321Z,26.00
2019-06-15T15:43:20.106Z,26.00
2019-06-15T15:45:50.860Z,26.00
2019-06-15T15:48:21.969Z,26.10
2019-06-15T15:50:53.276Z,26.10
2019-06-15T15:53:26.307Z,26.30
2019-06-15T15:55:59.813Z,26.50
2019-06-15T15:58:29.212Z,26.40
2019-06-15T16:01:00.039Z,26.40
2019-06-15T16:03:31.160Z,26.30
2019-06-15T16:06:02.182Z,26.10
2019-06-15T16:08:32.950Z,26.20
2019-06-15T16:11:04.456Z,26.20
2019-06-15T16:13:35.263Z,26.00
2019-06-15T16:16:06.185Z,26.10
2019-06-15T16:18:36.963Z,25.90
2019-06-15T16:21:08.019Z,25.90
2019-06-15T16:23:38.874Z,25.80
2019-06-15T16:26:09.903Z,25.60
2019-06-15T16:28:41.352Z,25.70
2019-06-15T16:31:13.930Z,25.70
2019-06-15T16:33:46.485Z,25.70
2019-06-15T16:36:17.470Z,25.60
2019-06-15T16:38:48.394Z,25.60
2019-06-15T16:41:19.519Z,25.60
2019-06-15T16:43:50.422Z,25.80
2019-06-15T16:46:21.228Z,25.70
2019-06-15T16:48:52.227Z,25.70
2019-06-15T16:51:24.055Z,25.50
2019-06-15T16:53:57.030Z,25.40
2019-06-15T16:56:27.885Z,25.50
2019-06-15T16:58:59.650Z,25.30
2019-06-15T17:01:31.249Z,25.40
2019-06-15T17:04:02.333Z,25.40
2019-06-15T17:06:33.165Z,25.30
2019-06-15T17:09:06.101Z,25.20
2019-06-15T17:11:38.582Z,25.30
2019-06-15T17:14:09.509Z,25.30
2019-06-15T17:16:40.271Z,25.30
2019-06-15T17:19:11.471Z,25.40
2019-06-15T17:21:42.225Z,25.40
2019-06-15T17:24:13.353Z,25.40
2019-06-15T17:26:46.663Z,25.30
2019-06-15T17:29:16.655Z,25.20
2019-06-15T17:31:48.096Z,25.10
2019-06-15T17:34:18.869Z,25.10
2019-06-15T17:36:49.628Z,25.10
2019-06-15T17:39:20.406Z,25.00
2019-06-15T17:41:51.481Z,24.90
2019-06-15T17:44:22.244Z,25.00
2019-06-15T17:46:53.024Z,25.00
2019-06-15T17:49:23.818Z,25.00
2019-06-15T17:51:54.921Z,25.00
2019-06-15T17:54:27.295Z,25.00
2019-06-15T17:56:59.939Z,25.00
2019-06-15T17:59:30.992Z,25.00
2019-06-15T18:02:02.888Z,24.90
2019-06-15T18:04:37.120Z,25.00
2019-06-15T18:07:06.617Z,24.90
2019-06-15T18:09:37.741Z,24.90
2019-06-15T18:12:08.701Z,24.90
2019-06-15T18:14:40.399Z,24.80
2019-06-15T18:17:11.183Z,24.80
2019-06-15T18:19:42.276Z,24.80
2019-06-15T18:22:13.070Z,24.80
2019-06-15T18:24:46.494Z,25.00
2019-06-15T18:27:17.974Z,24.90
2019-06-15T18:29:49.049Z,25.00
2019-06-15T18:32:19.809Z,24.90
2019-06-15T18:34:50.891Z,25.00
2019-06-15T18:37:21.636Z,25.00
2019-06-15T18:39:52.416Z,25.00
2019-06-15T18:42:25.945Z,24.90
2019-06-15T18:44:56.810Z,24.90
2019-06-15T18:47:27.951Z,24.70
2019-06-15T18:49:58.750Z,24.70
2019-06-15T18:52:29.839Z,24.60
2019-06-15T18:55:01.257Z,24.40
2019-06-15T18:57:32.122Z,24.40
2019-06-15T19:00:03.009Z,24.40
2019-06-15T19:02:36.166Z,24.40
2019-06-15T19:05:07.873Z,24.30
2019-06-15T19:07:38.945Z,24.30
2019-06-15T19:10:10.246Z,24.20
2019-06-15T19:12:41.054Z,24.30
2019-06-15T19:15:12.351Z,24.20
2019-06-15T19:17:46.244Z,24.10
2019-06-15T19:20:16.907Z,24.10
2019-06-15T19:22:48.000Z,24.10
2019-06-15T19:25:19.311Z,24.20
2019-06-15T19:27:50.644Z,24.20
2019-06-15T19:30:22.133Z,24.10
2019-06-15T19:32:52.975Z,24.20
2019-06-15T19:35:26.332Z,24.10
2019-06-15T19:37:57.495Z,24.10
2019-06-15T19:40:28.618Z,24.10
2019-06-15T19:42:59.758Z,24.20
2019-06-15T19:45:30.911Z,24.20
2019-06-15T19:48:02.044Z,24.20
2019-06-15T19:50:35.986Z,24.20
2019-06-15T19:53:06.993Z,24.20
2019-06-15T19:55:39.553Z,24.20
2019-06-15T19:58:10.838Z,24.10
2019-06-15T20:00:41.627Z,24.10
2019-06-15T20:03:12.706Z,24.00
2019-06-15T20:05:46.091Z,24.00
2019-06-15T20:08:17.717Z,23.90
2019-06-15T20:10:49.091Z,23.90
2019-06-15T20:13:19.892Z,23.80
2019-06-15T20:15:50.761Z,23.80
2019-06-15T20:18:21.549Z,23.70
2019-06-15T20:20:53.099Z,23.70
2019-06-15T20:23:26.430Z,23.60
2019-06-15T20:25:57.003Z,23.60
2019-06-15T20:28:28.049Z,23.50
2019-06-15T20:30:59.964Z,23.50
2019-06-15T20:33:30.802Z,23.50
2019-06-15T20:36:01.899Z,23.40
2019-06-15T20:38:32.935Z,23.30
2019-06-15T20:41:03.719Z,23.30
2019-06-15T20:43:36.614Z,23.30
2019-06-15T20:46:07.743Z,23.30
2019-06-15T20:48:38.769Z,23.30
2019-06-15T20:51:10.465Z,23.10
2019-06-15T20:53:41.256Z,23.10
2019-06-15T20:56:12.326Z,23.10
2019-06-15T20:58:45.298Z,23.10
2019-06-15T21:01:16.537Z,23.20
2019-06-15T21:03:47.623Z,23.20
2019-06-15T21:06:18.662Z,23.20
2019-06-15T21:08:49.577Z,23.20
2019-06-15T21:11:20.455Z,23.20
2019-06-15T21:13:51.236Z,23.20
2019-06-15T21:16:22.402Z,23.20
2019-06-15T21:18:53.433Z,23.10
2019-06-15T21:21:24.210Z,23.10
2019-06-15T21:23:56.951Z,23.10
2019-06-15T21:26:27.871Z,23.10
2019-06-15T21:29:00.032Z,23.00
2019-06-15T21:31:30.834Z,23.00
2019-06-15T21:34:01.991Z,22.90
2019-06-15T21:36:33.419Z,22.90
2019-06-15T21:39:06.831Z,22.90
2019-06-15T21:41:39.114Z,22.90
2019-06-15T21:44:10.208Z,22.90
2019-06-15T21:46:41.507Z,22.90
2019-06-15T21:49:15.803Z,22.90
2019-06-15T21:51:47.346Z,22.80
2019-06-15T21:54:18.593Z,22.80
2019-06-15T21:56:49.340Z,22.80
2019-06-15T21:59:20.414Z,22.80
2019-06-15T22:01:51.734Z,22.80
2019-06-15T22:04:22.571Z,22.80
2019-06-15T22:06:53.478Z,22.70
2019-06-15T22:09:26.507Z,22.70
2019-06-15T22:11:57.121Z,22.60
2019-06-15T22:14:28.317Z,22.50
2019-06-15T22:16:59.345Z,22.50
2019-06-15T22:19:30.217Z,22.50
2019-06-15T22:22:01.396Z,22.50
2019-06-15T22:24:36.226Z,22.50
2019-06-15T22:27:06.935Z,22.50
2019-06-15T22:29:37.764Z,22.40
2019-06-15T22:32:08.905Z,22.40
2019-06-15T22:34:39.972Z,22.40
2019-06-15T22:37:10.934Z,22.40
2019-06-15T22:39:41.728Z,22.40
2019-06-15T22:42:12.501Z,22.30
2019-06-15T22:44:46.258Z,22.30
2019-06-15T22:47:16.937Z,22.20
2019-06-15T22:49:47.933Z,22.10
2019-06-15T22:52:18.699Z,22.10
2019-06-15T22:54:49.898Z,22.00
2019-06-15T22:57:20.854Z,22.00
2019-06-15T22:59:51.978Z,21.90
2019-06-15T23:02:22.782Z,21.80
2019-06-15T23:04:56.449Z,21.80
2019-06-15T23:07:27.538Z,21.70
2019-06-15T23:09:58.653Z,21.60
2019-06-15T23:12:29.713Z,21.60
2019-06-15T23:15:00.849Z,21.50
2019-06-15T23:17:32.979Z,21.50
2019-06-15T23:20:06.383Z,21.40
2019-06-15T23:22:37.010Z,21.40
2019-06-15T23:25:08.048Z,21.40
2019-06-15T23:27:38.805Z,21.40
2019-06-15T23:30:10.735Z,21.40
2019-06-15T23:32:41.871Z,21.30
2019-06-15T23:35:12.882Z,21.30
2019-06-15T23:37:46.340Z,21.30
2019-06-15T23:40:20.947Z,21.30
2019-06-15T23:42:52.115Z,21.20
2019-06-15T23:45:26.585Z,21.20
2019-06-15T23:47:57.520Z,21.10
2019-06-15T23:50:28.837Z,21.10
2019-06-15T23:52:59.639Z,21.00
2019-06-15T23:55:30.764Z,21.00
2019-06-15T23:58:01.566Z,21.10
